Cleveland, OH

9:59 PM EST on February 24, 2017 (GMT -0500)
Burke Lakefront

Weather History for KBKL - January, 2011

Change the Weather History Date:

Thursday, January 6, 2011

  Actual Average Record
Temperature  
Mean Temperature 26 °F -  
Max Temperature 30 °F 35 °F 62 °F (1998)
Min Temperature 21 °F 24 °F -9 °F (2014)
Degree Days  
Heating Degree Days 40    
Moisture  
Dew Point 22 °F    
Average Humidity 81    
Maximum Humidity 93    
Minimum Humidity 69    
Precipitation  
Precipitation 0.00 in - - ()
Sea Level Pressure  
Sea Level Pressure 29.53 in    
Wind  
Wind Speed 13 mph (SW)    
Max Wind Speed 31 mph    
Max Gust Speed 36 mph    
Visibility 3 miles    
Events Fog , Snow    
Averages and records for this station are not official NWS values.
T = Trace of Precipitation, MM = Missing Value Source: NWS Daily Summary

Daily Weather History Graph

Daily Weather History Graph

Search for Another Location

Airport or City:

Trip Planner

Search our weather history database for the weather conditions in past years. The results will help you decide how hot, cold, wet, or windy it might be!

Date:

Astronomy

Jan. 06, 2011 Rise Set
Actual Time 7:53 AM EST 5:11 PM EST
Civil Twilight 7:22 AM EST 5:43 PM EST
Nautical Twilight 6:47 AM EST 6:17 PM EST
Astronomical Twilight 6:14 AM EST 6:51 PM EST
Moon 9:07 AM EST (1/6) 7:49 PM EST (1/6)
Length of Visible Light 10h 20m
Length of Day
9h 18m
Waxing Crescent, 5% of the Moon is Illuminated
Jan 6
Waxing Crescent
Jan 12
First Quarter
Jan 19
Full
Jan 26
Last Quarter
Feb 2
New

Hourly Weather History & Observations

Time (EST) Temp. Windchill Dew Point Humidity Pressure Visibility Wind Dir Wind Speed Gust Speed Precip Events Conditions
12:53 AM 21.9 °F 13.4 °F 15.1 °F 75% 29.80 in 8.0 mi SW 6.9 mph - N/A   Overcast
1:53 AM 21.9 °F 14.5 °F 15.1 °F 75% 29.79 in 7.0 mi SW 5.8 mph - N/A   Overcast
2:53 AM 24.1 °F 15.2 °F 15.1 °F 69% 29.80 in 8.0 mi SW 8.1 mph - N/A   Overcast
3:53 AM 23.0 °F 13.9 °F 16.0 °F 74% 29.77 in 9.0 mi SSW 8.1 mph - 0.00 in   Overcast
5:48 AM 23.0 °F 13.9 °F 17.6 °F 80% 29.69 in 2.5 mi South 8.1 mph - 0.00 in Snow Light Snow
5:53 AM 23.0 °F 12.4 °F 17.1 °F 78% 29.71 in 3.0 mi SSE 10.4 mph - 0.00 in Snow Light Snow
6:23 AM 23.0 °F 14.7 °F 17.6 °F 80% 29.68 in 3.0 mi SSE 6.9 mph - 0.00 in Snow Light Snow
6:35 AM 23.0 °F 13.1 °F 17.6 °F 80% 29.67 in 3.0 mi SE 9.2 mph - 0.00 in Snow Light Snow
6:43 AM 23.0 °F 15.8 °F 17.6 °F 80% 29.67 in 3.0 mi SE 5.8 mph - 0.00 in Snow Light Snow
6:53 AM 23.0 °F 13.1 °F 18.0 °F 81% 29.69 in 3.0 mi SSE 9.2 mph - 0.00 in Snow Light Snow
7:29 AM 24.8 °F 16.1 °F 17.6 °F 74% 29.65 in 6.0 mi SSE 8.1 mph - 0.00 in   Haze
7:53 AM 24.1 °F 13.1 °F 18.0 °F 77% 29.67 in 7.0 mi South 11.5 mph - 0.00 in   Overcast
8:53 AM 25.0 °F 14.8 °F 19.0 °F 78% 29.65 in 2.5 mi SSE 10.4 mph - 0.00 in Snow Light Snow
9:53 AM 27.0 °F 16.7 °F 21.0 °F 78% 29.64 in 3.0 mi SSW 11.5 mph - 0.00 in Snow Light Snow
10:53 AM 28.0 °F 18.1 °F 21.9 °F 78% 29.62 in 4.0 mi South 11.5 mph - 0.00 in Snow Light Snow
11:53 AM 30.0 °F 23.2 °F 23.0 °F 75% 29.58 in 3.0 mi SSW 6.9 mph - 0.00 in Snow Light Snow
12:53 PM 30.0 °F 22.4 °F 24.1 °F 79% 29.54 in 4.0 mi SSW 8.1 mph - 0.00 in Snow Light Snow
1:00 PM 30.2 °F 21.9 °F 24.8 °F 80% 29.51 in 2.5 mi SSW 9.2 mph - 0.00 in Snow Light Snow
1:53 PM 30.0 °F 23.2 °F 25.0 °F 82% 29.52 in 1.0 mi SSW 6.9 mph - 0.00 in Snow Light Snow
2:24 PM 30.2 °F 21.3 °F 26.6 °F 86% 29.48 in 2.0 mi SSW 10.4 mph - 0.00 in Snow Light Snow
2:41 PM 30.2 °F 20.2 °F 26.6 °F 86% 29.48 in 1.8 mi SW 12.7 mph - 0.00 in Snow Light Snow
2:53 PM 30.9 °F 22.2 °F 26.1 °F 82% 29.50 in 1.8 mi SW 10.4 mph - 0.00 in Snow Light Snow
3:53 PM 30.0 °F 21.1 °F 26.1 °F 85% 29.50 in 1.2 mi SW 10.4 mph - 0.00 in Snow Light Snow
4:53 PM 30.0 °F 21.7 °F 27.0 °F 88% 29.49 in 0.8 mi SW 9.2 mph - 0.00 in Snow Light Snow
5:07 PM 30.2 °F 21.9 °F 26.6 °F 86% 29.46 in 0.5 mi SW 9.2 mph - 0.00 in Fog , Snow Snow
5:25 PM 30.2 °F 21.9 °F 26.6 °F 86% 29.46 in 1.5 mi SW 9.2 mph - 0.00 in Snow Light Snow
5:42 PM 30.2 °F 22.6 °F 26.6 °F 86% 29.46 in 1.0 mi WSW 8.1 mph - 0.00 in Snow Light Snow
5:53 PM 30.0 °F 16.9 °F 27.0 °F 88% 29.49 in 0.8 mi West 21.9 mph 26.5 mph 0.00 in Snow Light Snow
6:08 PM 28.4 °F 14.7 °F 26.6 °F 93% 29.46 in 1.0 mi West 21.9 mph - 0.00 in Snow Light Snow
6:22 PM 28.4 °F 14.7 °F 24.8 °F 86% 29.46 in 1.8 mi West 21.9 mph - 0.00 in Snow Light Snow
6:30 PM 28.4 °F 15.8 °F 24.8 °F 86% 29.46 in 3.0 mi West 18.4 mph - 0.00 in Snow Light Snow
6:53 PM 28.0 °F 14.9 °F 25.0 °F 88% 29.48 in 5.0 mi West 19.6 mph 25.3 mph 0.00 in Snow Light Snow
7:02 PM 28.4 °F 15.8 °F 24.8 °F 86% 29.46 in 6.0 mi WSW 18.4 mph - 0.00 in   Overcast
7:09 PM 28.4 °F 15.8 °F 24.8 °F 86% 29.46 in 4.0 mi West 18.4 mph - 0.00 in Snow Light Snow
7:20 PM 28.4 °F 15.4 °F 24.8 °F 86% 29.46 in 2.0 mi West 19.6 mph - 0.00 in Snow Light Snow
7:25 PM 28.4 °F 15.1 °F 24.8 °F 86% 29.46 in 1.5 mi West 20.7 mph 26.5 mph 0.00 in Snow Light Snow
7:53 PM 27.0 °F 12.5 °F 23.0 °F 85% 29.49 in 1.2 mi West 23.0 mph - 0.00 in Snow Light Snow
8:14 PM 26.6 °F 12.0 °F 23.0 °F 86% 29.46 in 0.5 mi West 23.0 mph - 0.00 in Fog , Snow Snow
8:27 PM 26.6 °F 12.4 °F 21.2 °F 80% 29.46 in 2.0 mi West 21.9 mph - 0.00 in Snow Light Snow
8:44 PM 26.6 °F 12.0 °F 21.2 °F 80% 29.46 in 1.2 mi West 23.0 mph 33.4 mph 0.00 in Snow Light Snow
8:53 PM 27.0 °F 12.8 °F 21.0 °F 78% 29.47 in 2.0 mi West 21.9 mph 29.9 mph 0.00 in Snow Light Snow
9:01 PM 26.6 °F 11.4 °F 19.4 °F 74% 29.45 in 4.0 mi West 25.3 mph 31.1 mph 0.00 in Snow Light Snow
9:20 PM 26.6 °F 10.6 °F 19.4 °F 74% 29.45 in 1.8 mi West 28.8 mph 35.7 mph 0.00 in Snow Light Snow
9:33 PM 26.6 °F 10.8 °F 19.4 °F 74% 29.45 in 2.5 mi West 27.6 mph 33.4 mph 0.00 in Snow Light Snow
9:41 PM 26.6 °F 12.4 °F 19.4 °F 74% 29.45 in 3.0 mi West 21.9 mph 33.4 mph 0.00 in Snow Light Snow
9:50 PM 26.6 °F 10.0 °F 21.2 °F 80% 29.45 in 1.5 mi West 31.1 mph 35.7 mph 0.00 in Snow Light Snow
9:53 PM 26.1 °F 9.6 °F 21.9 °F 84% 29.47 in 0.8 mi West 29.9 mph 35.7 mph 0.00 in Snow Light Snow
10:16 PM 26.6 °F 11.1 °F 23.0 °F 86% 29.44 in 0.5 mi West 26.5 mph 33.4 mph 0.00 in Fog , Snow Snow
10:28 PM 26.6 °F 11.4 °F 21.2 °F 80% 29.45 in 0.8 mi West 25.3 mph - 0.00 in Snow Light Snow
10:35 PM 26.6 °F 11.7 °F 21.2 °F 80% 29.45 in 2.0 mi West 24.2 mph 31.1 mph 0.00 in Snow Light Snow
10:45 PM 26.6 °F 13.1 °F 21.2 °F 80% 29.44 in 10.0 mi West 19.6 mph 27.6 mph 0.00 in   Overcast
10:53 PM 26.1 °F 12.7 °F 19.9 °F 78% 29.46 in 10.0 mi WSW 18.4 mph - 0.00 in   Overcast
10:58 PM 26.6 °F 12.7 °F 21.2 °F 80% 29.44 in 1.8 mi West 20.7 mph 28.8 mph 0.00 in Snow Light Snow
11:05 PM 26.6 °F 12.7 °F 21.2 °F 80% 29.44 in 0.8 mi West 20.7 mph 28.8 mph 0.00 in Snow Light Snow
11:27 PM 24.8 °F 11.9 °F 21.2 °F 86% 29.44 in 1.2 mi SW 16.1 mph - 0.00 in Snow Light Snow
11:53 PM 26.1 °F 10.1 °F 19.9 °F 78% 29.45 in 1.2 mi West 27.6 mph 35.7 mph 0.00 in Snow Light Snow